Airfield :
LOGIN :

Register | Disclaimer

   EN    FR    IT 

 










Legend :    VFR   Marginal VFR   IFR   Intensive IFR   Very Intensive IFR
Visi :
Ceiling :
>= 8 km
>= 3000ft
5 to 8 km
1000 to 3000 ft
1500m to 5 km
500 to 1000 ft
800 to 1500m
200 to 500 ft
< 800m
< 200 ft
Symbols :   Thunderstorms  Fog  Heavy snow  Heavy precipitations  Wind > 20 kt
SIGMETs :     Misc.  Thunderstorms  Icing  Turbulence  Mountain Waves  Volcanic Ashes







- Airport Elevation : 362 ft
- IATA code : WAW


EPWA - Warsaw Okecie

CURRENT METAR :
  • 181600Z 31007G17KT 270V330 9999 FEW053CB 25/16 Q1019 TEMPO TSRA

EXPIRED METARs :
  • 181530Z VRB01KT 9999 FEW053CB 28/15 Q1019 TEMPO TSRA
  • 181500Z VRB01KT 9999 FEW053TCU 27/17 Q1019 TEMPO TSRA
  • 181430Z 30004KT 270V330 CAVOK 26/17 Q1019 TEMPO TSRA
  • 181400Z 30004KT CAVOK 27/18 Q1018 NOSIG
  • 181330Z VRB02KT CAVOK 27/16 Q1018 NOSIG

TAF TAF EPWA
Valid from the 18 at 15:00 until the 19 at 15:00 UTC


181430Z 1815/1915 VRB05KT CAVOK
PROB40
TEMPO 1815/1821 4500 TSRA BKN040CB
PROB30 1901/1906 3000 BR BKN005
No reported NOTAMs for that airfield.
3 SIGMETs reported for the Warszawa FIR (EPWW) :
 
Embedded thunderstorms
EPWW SIGMET 5 VALID 181520/181730 EPWA
EPWW WARSAW FIR EMBD TS OBS WI N5400 E02320 - N5130 E02010 - N4950 E02000 - N5010 E01800 - N5240 E01840 - N5420 E02040 - N5400 E02320 TOP FL380 MOV NE NC=
SIGMET 3  cancelation
EPWW SIGMET 4 VALID 181510/181730 EPWA
EPWW WARSAW FIR CNL SIGMET 3 181430/181730=
SIGMET 3  CANCELED :
Embedded thunderstorms
EPWW SIGMET 3 VALID 181430/181730 EPWA
EPWW WARSAW FIR EMBD TS OBS NE OF LINE N5420 E02140 - N5200 E02020 - N5200 E02320 TOP FL380 MOV NE NC=



MET'MAP, your aeronautical weather chart ! - Copyright ORBIFLY December 2007 - Disclaimer

ORBIFLY MET'MAP TEAM :

Programming & Development : Alexandra Zaïnal
Concept & Development : Baudouin d'Aumeries
Co-Development & Prog : Marc-Olivier Méhu
Technical & hardware support : Manuel Goepfert

Contact : metmap@orbifly.com




SOURCES & CREDITS :

   NOAA